sensor_id;sensor_type;location;lat;lon;timestamp;P1;durP1;ratioP1;P2;durP2;ratioP2
18267;SDS011;9260;49.998;19.880;2022-12-16T00:04:15;229.00;;;111.73;;
18267;SDS011;9260;49.998;19.880;2022-12-16T00:14:20;222.13;;;104.13;;
18267;SDS011;9260;49.998;19.880;2022-12-16T00:24:23;223.03;;;107.40;;
18267;SDS011;9260;49.998;19.880;2022-12-16T00:34:28;205.63;;;99.83;;
18267;SDS011;9260;49.998;19.880;2022-12-16T00:44:31;223.17;;;110.83;;
18267;SDS011;9260;49.998;19.880;2022-12-16T00:54:36;221.43;;;109.20;;
18267;SDS011;9260;49.998;19.880;2022-12-16T01:04:39;234.70;;;115.17;;
18267;SDS011;9260;49.998;19.880;2022-12-16T01:14:44;225.53;;;110.60;;
18267;SDS011;9260;49.998;19.880;2022-12-16T01:24:47;222.53;;;108.93;;
18267;SDS011;9260;49.998;19.880;2022-12-16T01:34:53;231.17;;;102.93;;
18267;SDS011;9260;49.998;19.880;2022-12-16T01:44:56;229.83;;;112.77;;
18267;SDS011;9260;49.998;19.880;2022-12-16T01:55:37;231.97;;;114.00;;
18267;SDS011;9260;49.998;19.880;2022-12-16T02:05:44;231.97;;;114.00;;
18267;SDS011;9260;49.998;19.880;2022-12-16T02:15:52;225.20;;;112.10;;
18267;SDS011;9260;49.998;19.880;2022-12-16T02:36:50;220.87;;;111.37;;
18267;SDS011;9260;49.998;19.880;2022-12-16T02:47:05;226.20;;;114.47;;
18267;SDS011;9260;49.998;19.880;2022-12-16T02:57:13;208.70;;;102.30;;
18267;SDS011;9260;49.998;19.880;2022-12-16T03:07:30;223.13;;;106.47;;
18267;SDS011;9260;49.998;19.880;2022-12-16T03:17:38;212.90;;;109.50;;
18267;SDS011;9260;49.998;19.880;2022-12-16T03:27:44;215.93;;;108.10;;
18267;SDS011;9260;49.998;19.880;2022-12-16T03:37:54;218.13;;;113.90;;
18267;SDS011;9260;49.998;19.880;2022-12-16T03:47:59;187.67;;;94.30;;
18267;SDS011;9260;49.998;19.880;2022-12-16T03:58:04;213.13;;;110.13;;
18267;SDS011;9260;49.998;19.880;2022-12-16T04:08:07;209.93;;;108.37;;
18267;SDS011;9260;49.998;19.880;2022-12-16T04:18:13;210.57;;;105.53;;
18267;SDS011;9260;49.998;19.880;2022-12-16T04:28:36;211.93;;;109.10;;
18267;SDS011;9260;49.998;19.880;2022-12-16T04:38:41;204.57;;;106.83;;
18267;SDS011;9260;49.998;19.880;2022-12-16T04:49:01;211.60;;;108.97;;
18267;SDS011;9260;49.998;19.880;2022-12-16T04:59:24;204.77;;;105.00;;
18267;SDS011;9260;49.998;19.880;2022-12-16T05:09:56;195.00;;;101.20;;
18267;SDS011;9260;49.998;19.880;2022-12-16T05:20:18;207.00;;;103.07;;
18267;SDS011;9260;49.998;19.880;2022-12-16T05:30:39;200.87;;;103.93;;
18267;SDS011;9260;49.998;19.880;2022-12-16T05:41:01;194.30;;;100.93;;
18267;SDS011;9260;49.998;19.880;2022-12-16T05:51:22;192.73;;;105.73;;
18267;SDS011;9260;49.998;19.880;2022-12-16T06:01:44;192.83;;;99.50;;
18267;SDS011;9260;49.998;19.880;2022-12-16T06:12:05;197.80;;;103.43;;
18267;SDS011;9260;49.998;19.880;2022-12-16T06:22:28;198.87;;;101.90;;
18267;SDS011;9260;49.998;19.880;2022-12-16T06:32:50;187.93;;;96.00;;
18267;SDS011;9260;49.998;19.880;2022-12-16T06:43:12;190.73;;;100.40;;
18267;SDS011;9260;49.998;19.880;2022-12-16T06:53:34;194.17;;;100.33;;
18267;SDS011;9260;49.998;19.880;2022-12-16T07:03:56;200.57;;;123.47;;
18267;SDS011;9260;49.998;19.880;2022-12-16T07:14:18;195.00;;;115.20;;
18267;SDS011;9260;49.998;19.880;2022-12-16T07:24:40;190.40;;;100.27;;
18267;SDS011;9260;49.998;19.880;2022-12-16T07:35:01;188.53;;;102.17;;
18267;SDS011;9260;49.998;19.880;2022-12-16T07:45:24;181.27;;;93.33;;
18267;SDS011;9260;49.998;19.880;2022-12-16T07:55:46;182.30;;;93.23;;
18267;SDS011;9260;49.998;19.880;2022-12-16T08:06:11;186.80;;;96.53;;
18267;SDS011;9260;49.998;19.880;2022-12-16T08:16:40;190.57;;;99.33;;
18267;SDS011;9260;49.998;19.880;2022-12-16T08:27:03;190.47;;;97.07;;
18267;SDS011;9260;49.998;19.880;2022-12-16T08:37:24;182.07;;;98.63;;
18267;SDS011;9260;49.998;19.880;2022-12-16T08:47:46;185.73;;;96.77;;
18267;SDS011;9260;49.998;19.880;2022-12-16T08:58:09;185.63;;;92.53;;
18267;SDS011;9260;49.998;19.880;2022-12-16T09:08:31;181.03;;;93.70;;
18267;SDS011;9260;49.998;19.880;2022-12-16T09:19:00;190.17;;;97.00;;
18267;SDS011;9260;49.998;19.880;2022-12-16T09:29:23;191.33;;;100.03;;
18267;SDS011;9260;49.998;19.880;2022-12-16T09:39:45;188.53;;;91.37;;
18267;SDS011;9260;49.998;19.880;2022-12-16T09:50:12;190.33;;;96.13;;
18267;SDS011;9260;49.998;19.880;2022-12-16T10:00:39;183.90;;;97.77;;
18267;SDS011;9260;49.998;19.880;2022-12-16T10:11:05;191.70;;;99.57;;
18267;SDS011;9260;49.998;19.880;2022-12-16T10:21:32;188.90;;;98.60;;
18267;SDS011;9260;49.998;19.880;2022-12-16T10:32:14;195.03;;;101.30;;
18267;SDS011;9260;49.998;19.880;2022-12-16T10:42:40;194.03;;;100.73;;
18267;SDS011;9260;49.998;19.880;2022-12-16T10:53:11;198.63;;;104.67;;
18267;SDS011;9260;49.998;19.880;2022-12-16T11:03:36;198.03;;;106.67;;
18267;SDS011;9260;49.998;19.880;2022-12-16T11:14:22;187.97;;;92.13;;
18267;SDS011;9260;49.998;19.880;2022-12-16T11:25:12;192.27;;;98.43;;
18267;SDS011;9260;49.998;19.880;2022-12-16T11:35:38;191.70;;;98.37;;
18267;SDS011;9260;49.998;19.880;2022-12-16T11:46:04;191.67;;;98.00;;
18267;SDS011;9260;49.998;19.880;2022-12-16T11:56:31;186.60;;;94.63;;
18267;SDS011;9260;49.998;19.880;2022-12-16T12:07:16;198.33;;;99.37;;
18267;SDS011;9260;49.998;19.880;2022-12-16T12:17:49;194.63;;;99.23;;
18267;SDS011;9260;49.998;19.880;2022-12-16T12:28:22;196.30;;;101.83;;
18267;SDS011;9260;49.998;19.880;2022-12-16T12:38:56;191.23;;;96.03;;
18267;SDS011;9260;49.998;19.880;2022-12-16T12:49:31;194.17;;;102.93;;
18267;SDS011;9260;49.998;19.880;2022-12-16T12:59:59;202.63;;;105.50;;
18267;SDS011;9260;49.998;19.880;2022-12-16T13:10:31;202.97;;;108.10;;
18267;SDS011;9260;49.998;19.880;2022-12-16T13:20:56;206.00;;;105.50;;
18267;SDS011;9260;49.998;19.880;2022-12-16T13:31:18;205.17;;;110.40;;
18267;SDS011;9260;49.998;19.880;2022-12-16T13:41:51;193.67;;;99.83;;
18267;SDS011;9260;49.998;19.880;2022-12-16T13:52:19;200.97;;;104.17;;
18267;SDS011;9260;49.998;19.880;2022-12-16T14:02:45;204.17;;;105.40;;
18267;SDS011;9260;49.998;19.880;2022-12-16T14:13:12;204.30;;;103.70;;
18267;SDS011;9260;49.998;19.880;2022-12-16T14:23:42;213.17;;;112.07;;
18267;SDS011;9260;49.998;19.880;2022-12-16T14:34:11;216.97;;;110.53;;
18267;SDS011;9260;49.998;19.880;2022-12-16T14:44:36;209.87;;;108.17;;
18267;SDS011;9260;49.998;19.880;2022-12-16T14:54:57;205.30;;;104.27;;
18267;SDS011;9260;49.998;19.880;2022-12-16T15:05:33;203.30;;;105.90;;
18267;SDS011;9260;49.998;19.880;2022-12-16T15:15:56;208.40;;;109.33;;
18267;SDS011;9260;49.998;19.880;2022-12-16T15:26:20;221.83;;;117.23;;
18267;SDS011;9260;49.998;19.880;2022-12-16T15:36:43;218.73;;;118.33;;
18267;SDS011;9260;49.998;19.880;2022-12-16T15:47:16;230.30;;;124.97;;
18267;SDS011;9260;49.998;19.880;2022-12-16T15:57:53;214.57;;;114.07;;
18267;SDS011;9260;49.998;19.880;2022-12-16T16:08:16;233.90;;;126.27;;
18267;SDS011;9260;49.998;19.880;2022-12-16T16:18:37;219.83;;;114.83;;
18267;SDS011;9260;49.998;19.880;2022-12-16T16:29:01;229.73;;;115.30;;
18267;SDS011;9260;49.998;19.880;2022-12-16T16:39:22;236.40;;;123.50;;
18267;SDS011;9260;49.998;19.880;2022-12-16T16:49:45;243.70;;;126.70;;
18267;SDS011;9260;49.998;19.880;2022-12-16T17:00:08;239.60;;;125.37;;
18267;SDS011;9260;49.998;19.880;2022-12-16T17:10:46;255.80;;;139.93;;
18267;SDS011;9260;49.998;19.880;2022-12-16T17:21:08;243.53;;;124.77;;
18267;SDS011;9260;49.998;19.880;2022-12-16T17:31:30;243.10;;;124.47;;
18267;SDS011;9260;49.998;19.880;2022-12-16T17:41:52;253.93;;;133.67;;
18267;SDS011;9260;49.998;19.880;2022-12-16T17:52:14;249.73;;;127.53;;
18267;SDS011;9260;49.998;19.880;2022-12-16T18:02:35;258.67;;;124.90;;
18267;SDS011;9260;49.998;19.880;2022-12-16T18:12:58;254.90;;;125.73;;
18267;SDS011;9260;49.998;19.880;2022-12-16T18:23:20;252.17;;;126.30;;
18267;SDS011;9260;49.998;19.880;2022-12-16T18:33:42;242.93;;;119.17;;
18267;SDS011;9260;49.998;19.880;2022-12-16T18:44:04;266.83;;;128.43;;
18267;SDS011;9260;49.998;19.880;2022-12-16T18:54:30;236.10;;;117.60;;
18267;SDS011;9260;49.998;19.880;2022-12-16T19:04:51;264.90;;;141.43;;
18267;SDS011;9260;49.998;19.880;2022-12-16T19:15:25;256.20;;;124.47;;
18267;SDS011;9260;49.998;19.880;2022-12-16T19:25:46;249.33;;;121.10;;
18267;SDS011;9260;49.998;19.880;2022-12-16T19:36:08;255.43;;;132.83;;
18267;SDS011;9260;49.998;19.880;2022-12-16T19:46:29;280.90;;;140.67;;
18267;SDS011;9260;49.998;19.880;2022-12-16T19:56:52;262.57;;;135.20;;
18267;SDS011;9260;49.998;19.880;2022-12-16T20:07:13;294.90;;;144.53;;
18267;SDS011;9260;49.998;19.880;2022-12-16T20:17:35;294.73;;;144.53;;
18267;SDS011;9260;49.998;19.880;2022-12-16T20:27:56;288.83;;;149.53;;
18267;SDS011;9260;49.998;19.880;2022-12-16T20:38:26;294.40;;;145.97;;
18267;SDS011;9260;49.998;19.880;2022-12-16T20:48:47;249.07;;;120.43;;
18267;SDS011;9260;49.998;19.880;2022-12-16T20:59:10;251.77;;;123.33;;
18267;SDS011;9260;49.998;19.880;2022-12-16T21:09:31;227.00;;;120.33;;
18267;SDS011;9260;49.998;19.880;2022-12-16T21:19:53;239.10;;;128.77;;
18267;SDS011;9260;49.998;19.880;2022-12-16T21:30:14;234.37;;;120.53;;
18267;SDS011;9260;49.998;19.880;2022-12-16T21:40:37;236.10;;;112.30;;
18267;SDS011;9260;49.998;19.880;2022-12-16T21:50:58;235.40;;;120.17;;
18267;SDS011;9260;49.998;19.880;2022-12-16T22:01:21;231.17;;;114.33;;
18267;SDS011;9260;49.998;19.880;2022-12-16T22:11:42;241.63;;;118.67;;
18267;SDS011;9260;49.998;19.880;2022-12-16T22:22:16;224.17;;;109.53;;
18267;SDS011;9260;49.998;19.880;2022-12-16T22:32:38;232.50;;;118.03;;
18267;SDS011;9260;49.998;19.880;2022-12-16T22:43:00;236.23;;;115.13;;
18267;SDS011;9260;49.998;19.880;2022-12-16T22:53:21;225.13;;;115.17;;
18267;SDS011;9260;49.998;19.880;2022-12-16T23:03:58;226.83;;;112.77;;
18267;SDS011;9260;49.998;19.880;2022-12-16T23:14:20;238.07;;;118.37;;
18267;SDS011;9260;49.998;19.880;2022-12-16T23:24:45;227.17;;;109.97;;
18267;SDS011;9260;49.998;19.880;2022-12-16T23:35:06;228.70;;;112.87;;
18267;SDS011;9260;49.998;19.880;2022-12-16T23:45:29;228.13;;;114.20;;
18267;SDS011;9260;49.998;19.880;2022-12-16T23:55:53;240.20;;;114.07;;
